createdAt,value
2023-01-09T00:02:56.008Z,11.03
2023-01-09T00:05:59.921Z,11.19
2023-01-09T00:09:04.006Z,10.96
2023-01-09T00:12:08.194Z,11.15
2023-01-09T00:15:12.040Z,11.12
2023-01-09T00:18:16.057Z,10.93
2023-01-09T00:21:19.913Z,11.15
2023-01-09T00:24:23.823Z,11.12
2023-01-09T00:27:27.830Z,11.33
2023-01-09T00:30:31.755Z,11.37
2023-01-09T00:33:35.651Z,11.42
2023-01-09T00:36:39.692Z,11.50
2023-01-09T00:39:44.630Z,11.60
2023-01-09T00:42:48.680Z,11.32
2023-01-09T00:45:52.804Z,11.43
2023-01-09T00:48:56.738Z,10.92
2023-01-09T00:52:00.607Z,10.27
2023-01-09T00:55:04.494Z,9.95
2023-01-09T00:58:08.427Z,9.79
2023-01-09T01:01:12.464Z,9.95
2023-01-09T01:04:16.271Z,9.36
2023-01-09T01:07:20.506Z,9.16
2023-01-09T01:10:24.434Z,8.95
2023-01-09T01:13:28.469Z,9.38
2023-01-09T01:16:32.657Z,9.62
2023-01-09T01:19:36.677Z,9.53
2023-01-09T01:22:40.651Z,9.69
2023-01-09T01:25:44.590Z,9.75
2023-01-09T01:28:48.623Z,9.88
2023-01-09T01:31:52.655Z,9.94
2023-01-09T01:34:56.914Z,9.99
2023-01-09T01:38:00.708Z,9.91
2023-01-09T01:41:04.564Z,9.79
2023-01-09T01:44:08.506Z,9.14
2023-01-09T01:47:12.671Z,9.09
2023-01-09T01:50:16.566Z,8.57
2023-01-09T01:53:20.611Z,8.82
2023-01-09T01:56:24.336Z,9.13
2023-01-09T01:59:28.603Z,9.14
2023-01-09T02:02:32.589Z,8.88
2023-01-09T02:05:36.390Z,9.11
2023-01-09T02:08:40.415Z,9.33
2023-01-09T02:11:44.549Z,9.14
2023-01-09T02:14:48.514Z,9.16
2023-01-09T02:17:52.531Z,9.61
2023-01-09T02:20:56.437Z,9.52
2023-01-09T02:24:00.265Z,9.65
2023-01-09T02:27:04.431Z,9.65
2023-01-09T02:30:08.290Z,9.82
2023-01-09T02:33:17.207Z,9.73
2023-01-09T02:36:20.989Z,9.49
2023-01-09T02:39:25.007Z,9.41
2023-01-09T02:42:29.035Z,9.36
2023-01-09T02:45:33.239Z,9.76
2023-01-09T02:48:37.107Z,9.13
2023-01-09T02:51:41.080Z,9.21
2023-01-09T02:54:44.928Z,9.17
2023-01-09T02:57:49.014Z,9.06
2023-01-09T03:00:53.293Z,9.35
2023-01-09T03:03:57.214Z,8.91
2023-01-09T03:07:01.281Z,9.18
2023-01-09T03:10:05.324Z,9.56
2023-01-09T03:13:09.047Z,9.67
2023-01-09T03:16:13.253Z,9.71
2023-01-09T03:19:17.038Z,9.48
2023-01-09T03:22:20.994Z,9.31
2023-01-09T03:25:25.111Z,9.40
2023-01-09T03:28:29.365Z,9.29
2023-01-09T03:31:33.307Z,9.36
2023-01-09T03:34:37.099Z,9.50
2023-01-09T03:37:41.166Z,9.11
2023-01-09T03:40:45.156Z,9.30
2023-01-09T03:43:49.050Z,9.36
2023-01-09T03:46:52.882Z,9.59
2023-01-09T03:49:56.805Z,9.51
2023-01-09T03:53:00.824Z,9.73
2023-01-09T03:56:04.828Z,9.89
2023-01-09T03:59:09.594Z,9.83
2023-01-09T04:02:13.535Z,9.89
2023-01-09T04:05:17.420Z,9.70
2023-01-09T04:08:21.442Z,9.56
2023-01-09T04:11:25.388Z,9.49
2023-01-09T04:14:29.216Z,9.57
2023-01-09T04:17:33.304Z,9.82
2023-01-09T04:20:37.459Z,9.85
2023-01-09T04:23:41.523Z,9.87
2023-01-09T04:26:45.556Z,9.48
2023-01-09T04:29:49.487Z,9.54
2023-01-09T04:32:53.511Z,9.16
2023-01-09T04:35:57.559Z,9.10
2023-01-09T04:39:01.448Z,8.90
2023-01-09T04:42:05.353Z,9.24
2023-01-09T04:45:09.194Z,9.49
2023-01-09T04:48:13.074Z,9.37
2023-01-09T04:51:17.053Z,9.00
2023-01-09T04:54:21.000Z,9.31
2023-01-09T04:57:24.642Z,9.39
2023-01-09T05:00:31.838Z,9.55
2023-01-09T05:03:36.021Z,9.73
2023-01-09T05:06:40.160Z,9.76
2023-01-09T05:09:44.126Z,9.80
2023-01-09T05:12:48.197Z,9.83
2023-01-09T05:15:52.247Z,9.74
2023-01-09T05:18:55.966Z,9.78
2023-01-09T05:21:59.875Z,9.66
2023-01-09T05:25:03.835Z,9.67
2023-01-09T05:28:07.910Z,9.39
2023-01-09T05:31:12.072Z,9.17
2023-01-09T05:34:16.141Z,9.33
2023-01-09T05:37:20.062Z,9.39
2023-01-09T05:40:29.106Z,9.41
2023-01-09T05:43:36.152Z,9.57
2023-01-09T05:46:41.687Z,9.65
2023-01-09T05:49:45.727Z,9.62
2023-01-09T05:52:49.823Z,9.77
2023-01-09T05:55:53.950Z,9.61
2023-01-09T05:58:57.864Z,9.70
2023-01-09T06:02:04.898Z,9.67
2023-01-09T06:05:08.639Z,9.57
2023-01-09T06:08:12.680Z,9.56
2023-01-09T06:11:16.912Z,9.60
2023-01-09T06:14:20.887Z,9.72
2023-01-09T06:17:24.670Z,9.50
2023-01-09T06:20:28.742Z,9.65
2023-01-09T06:23:32.937Z,9.72
2023-01-09T06:26:36.989Z,9.75
2023-01-09T06:29:40.971Z,9.72
2023-01-09T06:32:44.940Z,9.71
2023-01-09T06:35:48.953Z,9.85
2023-01-09T06:38:53.070Z,9.86
2023-01-09T06:41:57.079Z,9.60
2023-01-09T06:45:00.921Z,9.76
2023-01-09T06:48:05.423Z,9.83
2023-01-09T06:51:09.884Z,9.75
2023-01-09T06:54:15.886Z,9.86
2023-01-09T06:57:24.222Z,9.79
2023-01-09T07:00:33.003Z,9.56
2023-01-09T07:03:37.459Z,9.74
2023-01-09T07:06:45.868Z,9.72
2023-01-09T07:09:50.210Z,9.69
2023-01-09T07:12:54.250Z,9.81
2023-01-09T07:15:58.517Z,9.92
2023-01-09T07:19:04.032Z,9.82
2023-01-09T07:22:08.277Z,9.79
2023-01-09T07:25:14.884Z,9.59
2023-01-09T07:28:19.647Z,9.45
2023-01-09T07:31:25.104Z,9.68
2023-01-09T07:34:29.424Z,9.54
2023-01-09T07:37:33.295Z,9.55
2023-01-09T07:40:37.356Z,9.58
2023-01-09T07:43:41.522Z,9.68
2023-01-09T07:46:45.118Z,9.44
2023-01-09T07:49:50.244Z,9.75
2023-01-09T07:52:54.183Z,9.58
2023-01-09T07:55:58.480Z,9.78
2023-01-09T07:59:02.713Z,9.94
2023-01-09T08:02:07.170Z,9.90
2023-01-09T08:05:11.501Z,9.81
2023-01-09T08:08:19.771Z,9.69
2023-01-09T08:11:23.695Z,9.67
2023-01-09T08:14:27.799Z,9.66
2023-01-09T08:17:31.652Z,10.05
2023-01-09T08:20:37.334Z,10.04
2023-01-09T08:23:41.498Z,9.85
2023-01-09T08:26:45.739Z,10.11
2023-01-09T08:29:50.240Z,10.07
2023-01-09T08:32:56.916Z,10.12
2023-01-09T08:36:04.753Z,10.35
2023-01-09T08:39:09.159Z,10.23
2023-01-09T08:42:13.541Z,10.04
2023-01-09T08:45:17.786Z,10.20
2023-01-09T08:48:23.017Z,10.08
2023-01-09T08:51:27.268Z,10.26
2023-01-09T08:54:31.373Z,10.38
2023-01-09T08:57:35.500Z,10.59
2023-01-09T09:00:39.331Z,10.78
2023-01-09T09:03:44.173Z,10.77
2023-01-09T09:06:49.155Z,10.70
2023-01-09T09:09:54.611Z,10.62
2023-01-09T09:12:58.580Z,10.29
2023-01-09T09:16:04.573Z,10.30
2023-01-09T09:19:08.284Z,9.95
2023-01-09T09:22:14.863Z,10.03
2023-01-09T09:28:48.779Z,9.85
2023-01-09T09:31:53.023Z,9.95
2023-01-09T09:34:56.967Z,10.03
2023-01-09T09:38:03.935Z,9.87
2023-01-09T09:41:11.422Z,9.98
2023-01-09T09:44:15.205Z,9.73
2023-01-09T09:47:19.377Z,9.67
2023-01-09T09:50:23.397Z,9.90
2023-01-09T09:53:27.009Z,9.54
2023-01-09T09:56:31.427Z,9.39
2023-01-09T09:59:37.695Z,9.02
2023-01-09T10:02:41.681Z,9.10
2023-01-09T10:05:48.347Z,8.82
2023-01-09T10:08:52.455Z,8.78
2023-01-09T10:11:57.425Z,8.95
2023-01-09T10:15:01.609Z,9.20
2023-01-09T10:18:05.471Z,8.74
2023-01-09T10:21:09.766Z,8.97
2023-01-09T10:24:13.857Z,8.96
2023-01-09T10:27:18.865Z,8.67
2023-01-09T10:30:24.231Z,8.54
2023-01-09T10:33:28.316Z,8.87
2023-01-09T10:36:34.271Z,8.74
2023-01-09T10:39:38.356Z,8.68
2023-01-09T10:42:41.994Z,8.86
2023-01-09T10:45:46.247Z,9.29
2023-01-09T10:48:50.546Z,9.16
2023-01-09T10:51:55.721Z,9.04
2023-01-09T10:54:59.767Z,8.97
2023-01-09T10:58:03.717Z,9.01
2023-01-09T11:01:12.242Z,9.26
2023-01-09T11:04:24.045Z,9.24
2023-01-09T11:07:28.048Z,9.40
2023-01-09T11:10:31.911Z,9.66
2023-01-09T11:13:36.178Z,10.35
2023-01-09T11:16:40.235Z,10.30
2023-01-09T11:19:45.104Z,10.76
2023-01-09T11:22:49.116Z,10.75
2023-01-09T11:25:53.135Z,10.67
2023-01-09T11:28:57.133Z,10.54
2023-01-09T11:32:01.208Z,10.41
2023-01-09T11:35:05.052Z,10.02
2023-01-09T11:38:09.397Z,10.18
2023-01-09T11:41:14.299Z,10.23
2023-01-09T11:44:18.415Z,10.02
2023-01-09T11:47:22.778Z,10.31
2023-01-09T11:50:26.493Z,10.44
2023-01-09T11:53:30.546Z,10.17
2023-01-09T11:56:34.967Z,10.37
2023-01-09T11:59:39.119Z,10.58
2023-01-09T12:02:42.963Z,10.38
2023-01-09T12:05:46.950Z,10.50
2023-01-09T12:08:50.823Z,10.82
2023-01-09T12:11:55.143Z,10.90
2023-01-09T12:14:59.253Z,10.60
2023-01-09T12:18:02.989Z,10.74
2023-01-09T12:21:06.711Z,10.70
2023-01-09T12:24:11.016Z,10.36
2023-01-09T12:27:17.289Z,10.35
2023-01-09T12:30:21.243Z,10.02
2023-01-09T12:33:24.929Z,9.91
2023-01-09T12:36:28.741Z,9.80
2023-01-09T12:39:33.063Z,9.96
2023-01-09T12:42:37.096Z,9.97
2023-01-09T12:45:41.120Z,10.16
2023-01-09T12:48:44.957Z,9.80
2023-01-09T12:51:51.357Z,10.05
2023-01-09T12:54:55.328Z,9.98
2023-01-09T12:57:59.506Z,10.00
2023-01-09T13:01:03.381Z,9.78
2023-01-09T13:04:07.299Z,9.98
2023-01-09T13:07:11.492Z,9.78
2023-01-09T13:10:15.760Z,9.68
2023-01-09T13:13:20.019Z,9.66
2023-01-09T13:16:23.998Z,9.36
2023-01-09T13:19:28.261Z,9.18
2023-01-09T13:22:33.256Z,8.76
2023-01-09T13:25:37.356Z,8.38
2023-01-09T13:28:41.079Z,8.55
2023-01-09T13:31:45.074Z,8.57
2023-01-09T13:34:49.283Z,7.93
2023-01-09T13:37:53.610Z,7.63
2023-01-09T13:40:57.691Z,7.62
2023-01-09T13:44:01.623Z,7.48
2023-01-09T13:47:05.611Z,7.51
2023-01-09T13:50:09.396Z,7.23
2023-01-09T13:53:17.307Z,7.13
2023-01-09T13:56:23.789Z,7.47
2023-01-09T13:59:29.545Z,7.33
2023-01-09T14:02:33.756Z,7.68
2023-01-09T14:05:37.821Z,7.56
2023-01-09T14:08:42.103Z,7.25
2023-01-09T14:11:45.782Z,7.43
2023-01-09T14:14:50.201Z,7.42
2023-01-09T14:17:54.108Z,7.68
2023-01-09T14:20:58.705Z,8.16
2023-01-09T14:24:06.169Z,8.51
2023-01-09T14:27:10.699Z,8.68
2023-01-09T14:30:14.662Z,8.73
2023-01-09T14:33:18.936Z,9.28
2023-01-09T14:36:22.807Z,10.08
2023-01-09T14:39:26.500Z,9.10
2023-01-09T14:42:30.641Z,9.36
2023-01-09T14:45:35.032Z,8.88
2023-01-09T14:48:39.213Z,8.91
2023-01-09T14:51:43.267Z,8.80
2023-01-09T14:54:47.159Z,8.97
2023-01-09T14:57:51.573Z,9.05
2023-01-09T15:00:55.751Z,8.79
2023-01-09T15:03:59.592Z,8.49
2023-01-09T15:07:03.431Z,8.69
2023-01-09T15:10:08.610Z,8.32
2023-01-09T15:13:12.696Z,7.77
2023-01-09T15:16:16.866Z,7.91
2023-01-09T15:19:20.803Z,8.11
2023-01-09T15:22:24.833Z,7.80
2023-01-09T15:25:38.073Z,7.85
2023-01-09T15:28:44.664Z,7.92
2023-01-09T15:31:48.496Z,7.97
2023-01-09T15:34:52.583Z,8.29
2023-01-09T15:37:56.484Z,8.09
2023-01-09T15:41:02.023Z,8.40
2023-01-09T15:44:06.201Z,8.14
2023-01-09T15:47:09.957Z,8.07
2023-01-09T15:50:13.958Z,8.16
2023-01-09T15:53:18.225Z,8.13
2023-01-09T15:56:22.699Z,8.17
2023-01-09T15:59:26.820Z,8.16
2023-01-09T16:02:30.438Z,8.06
2023-01-09T16:05:34.370Z,8.16
2023-01-09T16:08:38.620Z,8.25
2023-01-09T16:11:42.468Z,8.11
2023-01-09T16:14:46.258Z,8.22
2023-01-09T16:17:50.173Z,8.31
2023-01-09T16:20:54.450Z,8.49
2023-01-09T16:23:58.568Z,8.54
2023-01-09T16:27:02.802Z,8.65
2023-01-09T16:30:06.880Z,8.53
2023-01-09T16:33:10.949Z,8.62
2023-01-09T16:36:14.918Z,8.59
2023-01-09T16:39:18.994Z,8.30
2023-01-09T16:42:23.202Z,8.46
2023-01-09T16:45:27.231Z,8.57
2023-01-09T16:48:31.363Z,8.63
2023-01-09T16:51:36.424Z,8.80
2023-01-09T16:54:40.684Z,8.83
2023-01-09T16:57:44.595Z,8.80
2023-01-09T17:00:48.598Z,8.69
2023-01-09T17:03:52.725Z,8.48
2023-01-09T17:06:56.544Z,8.52
2023-01-09T17:10:00.299Z,8.56
2023-01-09T17:13:04.217Z,8.54
2023-01-09T17:16:08.296Z,8.72
2023-01-09T17:19:12.685Z,8.78
2023-01-09T17:22:16.720Z,8.50
2023-01-09T17:25:20.959Z,8.58
2023-01-09T17:28:24.859Z,8.36
2023-01-09T17:31:28.770Z,8.32
2023-01-09T17:34:32.838Z,7.88
2023-01-09T17:37:36.805Z,8.31
2023-01-09T17:40:40.583Z,8.66
2023-01-09T17:43:46.687Z,8.73
2023-01-09T17:46:50.468Z,8.93
2023-01-09T17:49:54.655Z,8.77
2023-01-09T17:52:58.855Z,8.68
2023-01-09T17:56:02.688Z,8.89
2023-01-09T17:59:06.954Z,8.53
2023-01-09T18:02:11.298Z,8.63
2023-01-09T18:05:15.449Z,8.35
2023-01-09T18:08:19.438Z,8.28
2023-01-09T18:11:23.256Z,8.50
2023-01-09T18:14:27.239Z,8.63
2023-01-09T18:17:31.322Z,8.76
2023-01-09T18:20:35.313Z,8.64
2023-01-09T18:23:39.595Z,8.66
2023-01-09T18:26:43.557Z,8.69
2023-01-09T18:29:47.684Z,8.99
2023-01-09T18:32:51.648Z,9.07
2023-01-09T18:35:55.896Z,8.64
2023-01-09T18:38:59.776Z,8.78
2023-01-09T18:42:03.629Z,8.97
2023-01-09T18:45:07.874Z,8.91
2023-01-09T18:48:12.015Z,8.75
2023-01-09T18:51:16.135Z,8.81
2023-01-09T18:54:19.776Z,8.70
2023-01-09T18:57:23.855Z,8.67
2023-01-09T19:00:27.969Z,8.90
2023-01-09T19:03:31.972Z,8.36
2023-01-09T19:06:36.075Z,8.73
2023-01-09T19:09:39.794Z,8.95
2023-01-09T19:12:43.850Z,8.58
2023-01-09T19:15:47.802Z,8.78
2023-01-09T19:18:51.726Z,8.99
2023-01-09T19:21:55.589Z,8.71
2023-01-09T19:24:59.690Z,8.92
2023-01-09T19:28:03.700Z,8.81
2023-01-09T19:31:07.764Z,8.73
2023-01-09T19:34:11.564Z,8.79
2023-01-09T19:37:15.544Z,8.79
2023-01-09T19:40:19.655Z,8.82
2023-01-09T19:43:23.731Z,8.59
2023-01-09T19:46:27.610Z,8.78
2023-01-09T19:49:31.567Z,8.61
2023-01-09T19:52:35.631Z,8.45
2023-01-09T19:55:40.007Z,8.40
2023-01-09T19:58:43.933Z,8.12
2023-01-09T20:01:48.070Z,8.46
2023-01-09T20:04:52.065Z,8.47
2023-01-09T20:07:56.135Z,8.52
2023-01-09T20:11:00.119Z,8.51
2023-01-09T20:14:04.169Z,7.98
2023-01-09T20:17:08.106Z,7.87
2023-01-09T20:20:12.218Z,7.95
2023-01-09T20:23:16.556Z,8.14
2023-01-09T20:26:20.551Z,7.88
2023-01-09T20:29:24.641Z,8.06
2023-01-09T20:32:28.529Z,8.13
2023-01-09T20:35:32.864Z,8.04
2023-01-09T20:38:36.809Z,8.12
2023-01-09T20:41:40.737Z,7.19
2023-01-09T20:44:44.767Z,7.77
2023-01-09T20:47:48.859Z,7.59
2023-01-09T20:50:52.593Z,7.60
2023-01-09T20:53:56.435Z,7.88
2023-01-09T20:57:00.322Z,8.07
2023-01-09T21:00:04.282Z,8.09
2023-01-09T21:03:08.567Z,7.77
2023-01-09T21:06:12.712Z,8.17
2023-01-09T21:09:16.492Z,8.17
2023-01-09T21:12:20.445Z,8.15
2023-01-09T21:15:25.573Z,8.24
2023-01-09T21:18:29.570Z,8.21
2023-01-09T21:21:33.972Z,8.10
2023-01-09T21:24:37.728Z,7.74
2023-01-09T21:27:41.791Z,7.55
2023-01-09T21:30:45.922Z,7.68
2023-01-09T21:33:50.134Z,8.15
2023-01-09T21:36:54.426Z,8.13
2023-01-09T21:39:58.565Z,8.16
2023-01-09T21:43:02.658Z,8.08
2023-01-09T21:46:07.529Z,8.22
2023-01-09T21:49:11.407Z,8.15
2023-01-09T21:52:15.143Z,7.91
2023-01-09T21:55:19.182Z,8.32
2023-01-09T21:58:23.430Z,8.22
2023-01-09T22:01:27.549Z,8.50
2023-01-09T22:04:31.547Z,8.28
2023-01-09T22:07:35.483Z,8.21
2023-01-09T22:10:39.342Z,8.46
2023-01-09T22:13:43.283Z,8.39
2023-01-09T22:16:47.299Z,8.55
2023-01-09T22:19:51.239Z,8.39
2023-01-09T22:22:55.113Z,8.47
2023-01-09T22:25:59.110Z,8.78
2023-01-09T22:29:03.153Z,8.83
2023-01-09T22:32:07.401Z,8.68
2023-01-09T22:35:11.206Z,8.32
2023-01-09T22:38:15.237Z,7.91
2023-01-09T22:41:19.184Z,7.78
2023-01-09T22:44:23.160Z,7.99
2023-01-09T22:47:27.973Z,8.13
2023-01-09T22:50:31.671Z,7.85
2023-01-09T22:53:35.510Z,8.19
2023-01-09T22:56:39.628Z,7.95
2023-01-09T22:59:43.542Z,8.25
2023-01-09T23:02:47.505Z,8.17
2023-01-09T23:05:51.395Z,7.63
2023-01-09T23:08:55.391Z,7.31
2023-01-09T23:11:59.516Z,7.77
2023-01-09T23:15:03.318Z,7.39
2023-01-09T23:18:07.172Z,7.81
2023-01-09T23:21:11.085Z,7.99
2023-01-09T23:24:15.341Z,7.63
2023-01-09T23:27:19.330Z,7.40
2023-01-09T23:30:23.264Z,7.42
2023-01-09T23:33:27.518Z,6.77
2023-01-09T23:36:31.813Z,7.40
2023-01-09T23:39:35.856Z,7.19
2023-01-09T23:42:39.685Z,7.32
2023-01-09T23:45:43.557Z,6.96
2023-01-09T23:48:48.756Z,6.81
2023-01-09T23:51:52.629Z,7.16
2023-01-09T23:54:56.510Z,7.30
2023-01-09T23:58:00.382Z,7.43
